Time;durP1;ratioP1;P1;durP2;ratioP2;P2;SDS_P1;SDS_P2;PMS_P1;PMS_P2;Temp;Humidity;BMP_temperature;BMP_pressure;BME280_temperature;BME280_humidity;BME280_pressure;Samples;Min_cycle;Max_cycle;Signal;HPM_P1;HPM_P2
2022/10/27 00:02:06;;;;;;;;;;;12.20;99.90;;;;;;5056152;28;19974;-67
2022/10/27 00:04:31;;;;;;;;;;;12.10;99.90;;;;;;5067426;28;19932;-67
2022/10/27 00:06:57;;;;;;;;;;;12.20;99.90;;;;;;5064148;28;19920;-67
2022/10/27 00:09:22;;;;;;;;;;;12.20;99.90;;;;;;5046067;28;19968;-67
2022/10/27 00:11:48;;;;;;;;;;;12.20;99.90;;;;;;5050762;28;19960;-67
2022/10/27 00:14:14;;;;;;;;;;;12.20;99.90;;;;;;5064245;28;19928;-67
2022/10/27 00:16:39;;;;;;;;;;;12.30;99.90;;;;;;5047280;28;19924;-67
2022/10/27 00:19:05;;;;;;;;;;;12.30;99.90;;;;;;5062660;28;20018;-67
2022/10/27 00:21:30;;;;;;;;;;;12.30;99.90;;;;;;5047636;28;20295;-67
2022/10/27 00:23:56;;;;;;;;;;;12.40;99.90;;;;;;5065777;28;19935;-67
2022/10/27 00:26:22;;;;;;;;;;;12.40;99.90;;;;;;5063967;28;19927;-67
2022/10/27 00:28:47;;;;;;;;;;;12.50;99.90;;;;;;5064820;28;19974;-67
2022/10/27 00:31:15;;;;;;;;;;;12.50;99.90;;;;;;5064069;28;19932;-67
2022/10/27 00:33:41;;;;;;;;;;;12.50;99.90;;;;;;5045198;28;19921;-67
2022/10/27 00:36:09;;;;;;;;;;;12.50;99.90;;;;;;5047601;28;20381;-68
2022/10/27 00:38:37;;;;;;;;;;;12.50;99.90;;;;;;5049319;28;20284;-68
2022/10/27 00:41:04;;;;;;;;;;;12.50;99.90;;;;;;5062613;28;19947;-68
2022/10/27 00:43:30;;;;;;;;;;;12.40;99.90;;;;;;5062255;28;19927;-67
2022/10/27 00:46:14;;;;;;;;;;;12.40;99.90;;;;;;5064716;28;20003;-67
2022/10/27 00:48:40;;;;;;;;;;;12.40;99.90;;;;;;5048815;28;19920;-67
2022/10/27 00:51:06;;;;;;;;;;;12.30;99.90;;;;;;5065088;28;20393;-67
2022/10/27 00:53:35;;;;;;;;;;;12.30;99.90;;;;;;5043606;28;20023;-67
2022/10/27 00:56:01;;;;;;;;;;;12.30;99.90;;;;;;5065628;28;19932;-67
2022/10/27 00:58:26;;;;;;;;;;;12.20;99.90;;;;;;5051261;28;19920;-67
2022/10/27 01:00:52;;;;;;;;;;;12.10;99.90;;;;;;5061897;28;19921;-67
2022/10/27 01:03:22;;;;;;;;;;;12.10;99.90;;;;;;5049884;28;19920;-67
2022/10/27 01:05:48;;;;;;;;;;;12.60;99.90;;;;;;5062117;28;20329;-67
2022/10/27 01:08:16;;;;;;;;;;;12.00;99.90;;;;;;5046559;28;20372;-67
2022/10/27 01:10:42;;;;;;;;;;;12.00;99.90;;;;;;5045688;28;20410;-67
2022/10/27 01:13:08;;;;;;;;;;;12.30;99.90;;;;;;5044683;28;19920;-67
2022/10/27 01:15:40;;;;;;;;;;;12.10;99.90;;;;;;5064753;28;20356;-67
2022/10/27 01:18:29;;;;;;;;;;;12.10;99.90;;;;;;5046122;28;19921;-67
2022/10/27 01:21:14;;;;;;;;;;;12.10;99.90;;;;;;5059942;28;19921;-67
2022/10/27 01:23:45;;;;;;;;;;;12.00;99.90;;;;;;5063502;28;19931;-67
2022/10/27 01:26:43;;;;;;;;;;;12.10;99.90;;;;;;5063216;28;20031;-67
2022/10/27 01:29:08;;;;;;;;;;;12.10;99.90;;;;;;4981687;28;19933;-67
2022/10/27 01:31:34;;;;;;;;;;;12.10;99.90;;;;;;4978100;28;19929;-66
2022/10/27 01:34:05;;;;;;;;;;;12.20;99.90;;;;;;5043885;28;19920;-67
2022/10/27 01:36:36;;;;;;;;;;;12.20;99.90;;;;;;5045870;28;20374;-67
2022/10/27 01:39:13;;;;;;;;;;;12.20;99.90;;;;;;5062489;28;19928;-68
2022/10/27 01:41:42;;;;;;;;;;;12.20;99.90;;;;;;5061567;28;19921;-68
2022/10/27 01:44:11;;;;;;;;;;;12.30;99.90;;;;;;5048976;28;20039;-68
2022/10/27 01:46:37;;;;;;;;;;;12.30;99.90;;;;;;5048149;28;19920;-66
2022/10/27 01:49:06;;;;;;;;;;;12.30;99.90;;;;;;5062036;28;19988;-68
2022/10/27 01:51:32;;;;;;;;;;;12.30;99.90;;;;;;5044984;28;20422;-68
2022/10/27 01:54:02;;;;;;;;;;;12.30;99.90;;;;;;5064964;28;20018;-68
2022/10/27 01:56:30;;;;;;;;;;;12.30;99.90;;;;;;5061199;28;19966;-68
2022/10/27 01:59:08;;;;;;;;;;;12.30;99.90;;;;;;5063771;28;19999;-68
2022/10/27 02:01:34;;;;;;;;;;;12.30;99.90;;;;;;5062242;28;19927;-68
2022/10/27 02:04:03;;;;;;;;;;;12.20;99.90;;;;;;5062264;28;19999;-66
2022/10/27 02:06:32;;;;;;;;;;;12.20;99.90;;;;;;5061862;28;20361;-66
2022/10/27 02:09:01;;;;;;;;;;;12.30;99.90;;;;;;5044895;28;20007;-66
2022/10/27 02:11:29;;;;;;;;;;;12.20;99.90;;;;;;5061956;28;19928;-67
2022/10/27 02:13:57;;;;;;;;;;;12.30;99.90;;;;;;5044717;28;19927;-66
2022/10/27 02:16:27;;;;;;;;;;;12.40;99.90;;;;;;5048442;28;19924;-66
2022/10/27 02:19:01;;;;;;;;;;;12.40;99.90;;;;;;5043880;28;19974;-67
2022/10/27 02:21:28;;;;;;;;;;;12.50;99.90;;;;;;5062514;28;19924;-67
2022/10/27 02:23:53;;;;;;;;;;;12.60;99.90;;;;;;5043340;28;20295;-67
2022/10/27 02:26:25;;;;;;;;;;;12.70;99.90;;;;;;5045288;28;19927;-66
2022/10/27 02:29:00;;;;;;;;;;;12.70;99.90;;;;;;5043214;28;19970;-67
2022/10/27 02:31:29;;;;;;;;;;;12.70;99.90;;;;;;5060438;28;19921;-66
2022/10/27 02:33:56;;;;;;;;;;;12.70;99.90;;;;;;5044780;28;19924;-67
2022/10/27 02:36:21;;;;;;;;;;;12.70;99.90;;;;;;5042924;28;20360;-67
2022/10/27 02:38:47;;;;;;;;;;;12.70;99.90;;;;;;5048503;28;19965;-67
2022/10/27 02:41:12;;;;;;;;;;;12.70;99.90;;;;;;5066582;28;20055;-67
2022/10/27 02:43:38;;;;;;;;;;;12.80;99.90;;;;;;5042361;28;20388;-67
2022/10/27 02:46:03;;;;;;;;;;;12.70;99.90;;;;;;5062629;28;19927;-67
2022/10/27 02:48:29;;;;;;;;;;;12.70;99.90;;;;;;5061357;28;19920;-68
2022/10/27 02:50:54;;;;;;;;;;;12.70;99.90;;;;;;5050648;28;19920;-67
2022/10/27 02:53:20;;;;;;;;;;;12.70;99.90;;;;;;5060472;28;19927;-68
2022/10/27 02:55:45;;;;;;;;;;;12.80;99.90;;;;;;5044810;28;19926;-68
2022/10/27 02:58:11;;;;;;;;;;;12.70;99.90;;;;;;5042077;28;19920;-68
2022/10/27 03:00:36;;;;;;;;;;;12.90;99.90;;;;;;5063382;28;20020;-66
2022/10/27 03:03:02;;;;;;;;;;;13.00;99.90;;;;;;5042714;28;19956;-67
2022/10/27 03:05:28;;;;;;;;;;;12.90;99.90;;;;;;5043559;28;19925;-66
2022/10/27 03:08:02;;;;;;;;;;;12.90;99.90;;;;;;5061940;28;19924;-67
2022/10/27 03:10:28;;;;;;;;;;;12.90;99.90;;;;;;5050912;28;21266;-67
2022/10/27 03:12:53;;;;;;;;;;;13.00;99.90;;;;;;5046432;28;19920;-67
2022/10/27 03:15:19;;;;;;;;;;;13.00;99.90;;;;;;5046933;28;20369;-68
2022/10/27 03:17:48;;;;;;;;;;;12.90;99.90;;;;;;5066650;28;19924;-68
2022/10/27 03:20:14;;;;;;;;;;;12.90;99.90;;;;;;5048258;28;19925;-67
2022/10/27 03:22:40;;;;;;;;;;;12.90;99.90;;;;;;5054064;28;19967;-68
2022/10/27 03:25:06;;;;;;;;;;;12.90;99.90;;;;;;5046564;28;19948;-67
2022/10/27 03:27:32;;;;;;;;;;;12.90;99.90;;;;;;5066077;28;20011;-68
2022/10/27 03:29:57;;;;;;;;;;;13.00;99.90;;;;;;5064421;28;19968;-67
2022/10/27 03:32:23;;;;;;;;;;;13.00;99.90;;;;;;5065887;28;19924;-67
2022/10/27 03:34:48;;;;;;;;;;;12.90;99.90;;;;;;5046887;28;19920;-67
2022/10/27 03:37:14;;;;;;;;;;;13.00;99.90;;;;;;5049194;28;19921;-68
2022/10/27 03:39:39;;;;;;;;;;;13.10;99.90;;;;;;5048129;28;19920;-67
2022/10/27 03:42:05;;;;;;;;;;;13.00;99.90;;;;;;5063448;28;19944;-68
2022/10/27 03:44:30;;;;;;;;;;;12.90;99.90;;;;;;5048980;28;19927;-68
2022/10/27 03:46:56;;;;;;;;;;;13.00;99.90;;;;;;5063720;28;19967;-68
2022/10/27 03:49:22;;;;;;;;;;;13.00;99.90;;;;;;5046764;28;20011;-68
2022/10/27 03:51:47;;;;;;;;;;;13.00;99.90;;;;;;5065000;28;20003;-68
2022/10/27 03:54:16;;;;;;;;;;;13.00;99.90;;;;;;5065237;28;19968;-68
2022/10/27 03:56:41;;;;;;;;;;;13.00;99.90;;;;;;5064601;28;19929;-68
2022/10/27 03:59:07;;;;;;;;;;;13.00;99.90;;;;;;5064552;28;19921;-68
2022/10/27 04:01:33;;;;;;;;;;;13.00;99.90;;;;;;5064519;28;19931;-68
2022/10/27 04:04:03;;;;;;;;;;;13.00;99.90;;;;;;5063831;28;19924;-68
2022/10/27 04:06:29;;;;;;;;;;;13.00;99.90;;;;;;5048601;28;19924;-68
2022/10/27 04:08:54;;;;;;;;;;;13.00;99.90;;;;;;5044560;28;19921;-68
2022/10/27 04:11:20;;;;;;;;;;;12.90;99.90;;;;;;5065604;28;19920;-69
2022/10/27 04:13:46;;;;;;;;;;;13.00;99.90;;;;;;5065932;28;19962;-68
2022/10/27 04:16:11;;;;;;;;;;;13.00;99.90;;;;;;5045839;28;19920;-68
2022/10/27 04:18:37;;;;;;;;;;;13.20;99.90;;;;;;5044979;28;19967;-67
2022/10/27 04:21:03;;;;;;;;;;;12.90;99.90;;;;;;5065027;28;19924;-67
2022/10/27 04:23:31;;;;;;;;;;;13.00;99.90;;;;;;5063354;28;19921;-67
2022/10/27 04:25:57;;;;;;;;;;;13.00;99.90;;;;;;5066032;28;19924;-67
2022/10/27 04:28:22;;;;;;;;;;;13.00;99.90;;;;;;5062420;28;19940;-67
2022/10/27 04:30:48;;;;;;;;;;;13.10;99.90;;;;;;5043881;28;20007;-67
2022/10/27 04:33:14;;;;;;;;;;;13.10;99.90;;;;;;5042270;28;20387;-67
2022/10/27 04:35:43;;;;;;;;;;;13.20;99.90;;;;;;5046463;28;20016;-67
2022/10/27 04:38:11;;;;;;;;;;;13.20;99.90;;;;;;5041986;28;19920;-67
2022/10/27 04:40:36;;;;;;;;;;;13.30;99.90;;;;;;5043088;28;19956;-67
2022/10/27 04:43:02;;;;;;;;;;;13.30;99.90;;;;;;5043546;28;19927;-67
2022/10/27 04:45:28;;;;;;;;;;;13.40;99.90;;;;;;5041810;28;19921;-71
2022/10/27 04:47:53;;;;;;;;;;;13.40;99.90;;;;;;5045711;28;19920;-70
2022/10/27 04:50:19;;;;;;;;;;;13.40;99.90;;;;;;5042225;28;19936;-69
2022/10/27 04:53:00;;;;;;;;;;;13.40;99.90;;;;;;5044385;28;19921;-72
2022/10/27 04:55:27;;;;;;;;;;;13.40;99.90;;;;;;5046901;28;20015;-68
2022/10/27 04:57:53;;;;;;;;;;;13.40;99.90;;;;;;5044282;28;20291;-69
2022/10/27 05:00:19;;;;;;;;;;;13.40;99.90;;;;;;5041680;28;19921;-71
2022/10/27 05:02:44;;;;;;;;;;;13.40;99.90;;;;;;5046840;28;20328;-71
2022/10/27 05:05:10;;;;;;;;;;;13.50;99.90;;;;;;5041903;28;19966;-68
2022/10/27 05:07:35;;;;;;;;;;;13.50;99.90;;;;;;5044020;28;19921;-70
2022/10/27 05:10:01;;;;;;;;;;;13.50;99.90;;;;;;5043770;28;19921;-67
2022/10/27 05:12:26;;;;;;;;;;;13.50;99.90;;;;;;5044862;28;19928;-68
2022/10/27 05:14:52;;;;;;;;;;;13.50;99.90;;;;;;5042192;28;19921;-75
2022/10/27 05:17:17;;;;;;;;;;;13.50;99.90;;;;;;5041748;28;20018;-70
2022/10/27 05:19:43;;;;;;;;;;;13.70;99.90;;;;;;5043158;28;19982;-73
2022/10/27 05:22:08;;;;;;;;;;;13.50;99.90;;;;;;5039271;28;19921;-67
2022/10/27 05:24:34;;;;;;;;;;;13.60;99.90;;;;;;5043518;28;19927;-69
2022/10/27 05:26:59;;;;;;;;;;;13.60;99.90;;;;;;5041220;28;19916;-71
2022/10/27 05:29:25;;;;;;;;;;;13.60;99.90;;;;;;5043250;28;20434;-68
2022/10/27 05:31:51;;;;;;;;;;;13.50;99.90;;;;;;5062708;28;20004;-70
2022/10/27 05:34:17;;;;;;;;;;;13.50;99.90;;;;;;5059298;28;20007;-75
2022/10/27 05:36:43;;;;;;;;;;;13.60;99.90;;;;;;5048960;28;20355;-73
2022/10/27 05:39:08;;;;;;;;;;;13.50;99.90;;;;;;5042354;28;20380;-72
2022/10/27 05:41:34;;;;;;;;;;;13.60;99.90;;;;;;5042207;28;19948;-73
2022/10/27 05:43:59;;;;;;;;;;;13.70;99.90;;;;;;5042295;28;19959;-71
2022/10/27 05:46:25;;;;;;;;;;;13.60;99.90;;;;;;5061097;28;20280;-71
2022/10/27 05:48:53;;;;;;;;;;;13.70;99.90;;;;;;5061952;28;20375;-72
2022/10/27 05:51:22;;;;;;;;;;;13.80;99.90;;;;;;5045076;28;19920;-71
2022/10/27 05:53:48;;;;;;;;;;;13.60;99.90;;;;;;5046166;28;20014;-72
2022/10/27 05:56:14;;;;;;;;;;;13.70;99.90;;;;;;5042757;28;19920;-73
2022/10/27 05:58:39;;;;;;;;;;;14.60;99.90;;;;;;5046489;28;20016;-75
2022/10/27 06:01:05;;;;;;;;;;;13.70;99.90;;;;;;5060523;28;19921;-74
2022/10/27 06:03:30;;;;;;;;;;;13.70;99.90;;;;;;5063536;28;19928;-76
2022/10/27 06:05:56;;;;;;;;;;;13.70;99.90;;;;;;5045774;28;19939;-76
2022/10/27 06:08:23;;;;;;;;;;;13.60;99.90;;;;;;5043924;28;19920;-71
2022/10/27 06:10:48;;;;;;;;;;;13.70;99.90;;;;;;5062414;28;20012;-73
2022/10/27 06:13:14;;;;;;;;;;;13.90;99.90;;;;;;5047356;28;19974;-74
2022/10/27 06:15:39;;;;;;;;;;;13.70;99.90;;;;;;5038086;28;20046;-71
2022/10/27 06:18:05;;;;;;;;;;;13.60;99.90;;;;;;5045800;28;19920;-78
2022/10/27 06:20:31;;;;;;;;;;;13.60;99.90;;;;;;5043722;28;20288;-78
2022/10/27 06:22:57;;;;;;;;;;;13.70;99.90;;;;;;5049814;28;20332;-74
2022/10/27 06:25:23;;;;;;;;;;;13.80;99.90;;;;;;5064757;28;20214;-71
2022/10/27 06:27:48;;;;;;;;;;;13.70;99.90;;;;;;5060574;28;19938;-71
2022/10/27 06:30:14;;;;;;;;;;;13.70;99.90;;;;;;5062369;28;19921;-73
2022/10/27 06:32:40;;;;;;;;;;;13.70;99.90;;;;;;5063042;28;20326;-73
2022/10/27 06:35:05;;;;;;;;;;;13.70;99.90;;;;;;5059981;28;20024;-75
2022/10/27 06:37:31;;;;;;;;;;;13.70;99.90;;;;;;5044056;28;20292;-75
2022/10/27 06:39:56;;;;;;;;;;;13.60;99.90;;;;;;5046219;28;19927;-79
2022/10/27 06:42:28;;;;;;;;;;;13.60;99.90;;;;;;5062847;28;19921;-80
2022/10/27 06:44:53;;;;;;;;;;;13.60;99.90;;;;;;5041444;28;19967;-76
2022/10/27 06:47:19;;;;;;;;;;;13.70;99.90;;;;;;5043367;28;19917;-75
2022/10/27 06:49:44;;;;;;;;;;;13.60;99.90;;;;;;5059632;28;19967;-75
2022/10/27 06:52:10;;;;;;;;;;;13.60;99.90;;;;;;5039832;28;19921;-74
2022/10/27 06:54:35;;;;;;;;;;;13.60;99.90;;;;;;5060631;28;20798;-73
2022/10/27 06:57:01;;;;;;;;;;;13.60;99.90;;;;;;5045241;28;19924;-74
2022/10/27 06:59:26;;;;;;;;;;;13.60;99.90;;;;;;5063034;28;19971;-74
2022/10/27 07:01:52;;;;;;;;;;;13.60;99.90;;;;;;5045147;28;19920;-72
2022/10/27 07:04:17;;;;;;;;;;;13.70;99.90;;;;;;5042159;28;19927;-71
2022/10/27 07:06:43;;;;;;;;;;;13.80;99.90;;;;;;5062136;28;19921;-72
2022/10/27 07:09:11;;;;;;;;;;;13.70;99.90;;;;;;5044078;28;19928;-70
2022/10/27 07:11:37;;;;;;;;;;;13.70;99.90;;;;;;5061183;28;20107;-69
2022/10/27 07:14:02;;;;;;;;;;;13.80;99.90;;;;;;5060625;28;20382;-69
2022/10/27 07:16:28;;;;;;;;;;;13.70;99.90;;;;;;5049171;28;20011;-69
2022/10/27 07:18:54;;;;;;;;;;;13.90;99.90;;;;;;5044881;28;19920;-69
2022/10/27 07:21:19;;;;;;;;;;;13.90;99.90;;;;;;5065133;28;19916;-69
2022/10/27 07:23:45;;;;;;;;;;;13.90;99.90;;;;;;5064421;28;20050;-70
2022/10/27 07:26:10;;;;;;;;;;;14.00;99.90;;;;;;5046385;28;19999;-69
2022/10/27 07:28:36;;;;;;;;;;;14.10;99.90;;;;;;5043225;28;20288;-70
2022/10/27 07:31:01;;;;;;;;;;;14.10;99.90;;;;;;5064172;28;19927;-70
2022/10/27 07:33:27;;;;;;;;;;;14.10;99.90;;;;;;5061030;28;19920;-69
2022/10/27 07:35:52;;;;;;;;;;;14.10;99.90;;;;;;5045904;28;20131;-69
2022/10/27 07:38:18;;;;;;;;;;;14.20;99.90;;;;;;5045072;28;19960;-70
2022/10/27 07:40:44;;;;;;;;;;;14.30;99.90;;;;;;5040442;28;19960;-69
2022/10/27 07:43:10;;;;;;;;;;;14.30;99.90;;;;;;5062151;28;19971;-68
2022/10/27 07:45:36;;;;;;;;;;;14.30;99.90;;;;;;5043256;28;19920;-69
2022/10/27 07:48:05;;;;;;;;;;;14.40;99.90;;;;;;5060033;28;20004;-69
2022/10/27 07:50:32;;;;;;;;;;;14.40;99.90;;;;;;5043728;28;20287;-69
2022/10/27 07:52:59;;;;;;;;;;;14.50;99.90;;;;;;5042844;28;19921;-70
2022/10/27 07:55:25;;;;;;;;;;;15.10;99.90;;;;;;5043860;28;20359;-70
2022/10/27 07:58:01;;;;;;;;;;;14.60;99.90;;;;;;5061017;28;20023;-69
2022/10/27 08:00:28;;;;;;;;;;;14.70;99.90;;;;;;5047516;28;19974;-70
2022/10/27 08:02:54;;;;;;;;;;;14.90;99.90;;;;;;5047410;28;20391;-70
2022/10/27 08:05:19;;;;;;;;;;;15.10;99.90;;;;;;5047696;28;19920;-70
2022/10/27 08:07:48;;;;;;;;;;;15.30;99.90;;;;;;5062150;28;19923;-70
2022/10/27 08:10:13;;;;;;;;;;;15.60;99.90;;;;;;5048594;28;19924;-71
2022/10/27 08:12:43;;;;;;;;;;;15.80;99.90;;;;;;5049266;28;19921;-71
2022/10/27 08:15:08;;;;;;;;;;;16.10;99.90;;;;;;5065280;28;19924;-71
2022/10/27 08:17:34;;;;;;;;;;;16.40;99.90;;;;;;5046283;28;20016;-70
2022/10/27 08:19:59;;;;;;;;;;;16.90;99.90;;;;;;5064593;28;19920;-70
2022/10/27 08:22:25;;;;;;;;;;;17.40;99.90;;;;;;5064695;28;20315;-71
2022/10/27 08:24:51;;;;;;;;;;;17.90;99.90;;;;;;5064755;28;19921;-71
2022/10/27 08:27:19;;;;;;;;;;;18.20;99.90;;;;;;5063921;28;19924;-71
2022/10/27 08:29:45;;;;;;;;;;;18.50;99.90;;;;;;5061684;28;19920;-70
2022/10/27 08:32:11;;;;;;;;;;;18.50;99.90;;;;;;5066518;28;20016;-69
2022/10/27 08:34:36;;;;;;;;;;;18.80;99.90;;;;;;5067024;28;20215;-70
2022/10/27 08:37:02;;;;;;;;;;;19.10;99.90;;;;;;5062653;28;19924;-69
2022/10/27 08:39:30;;;;;;;;;;;19.30;99.90;;;;;;5064584;28;19921;-69
2022/10/27 08:42:02;;;;;;;;;;;19.40;99.90;;;;;;5049997;28;20021;-69
2022/10/27 08:44:31;;;;;;;;;;;19.90;99.90;;;;;;5063410;28;19920;-71
2022/10/27 08:46:59;;;;;;;;;;;20.30;99.90;;;;;;5066225;28;19921;-70
2022/10/27 08:49:42;;;;;;;;;;;20.60;99.90;;;;;;5049945;28;19927;-69
2022/10/27 08:52:11;;;;;;;;;;;20.90;99.90;;;;;;5044493;28;19921;-69
2022/10/27 08:54:37;;;;;;;;;;;20.80;99.90;;;;;;5044169;28;19931;-72
2022/10/27 08:57:03;;;;;;;;;;;21.20;99.90;;;;;;5048275;28;19920;-75
2022/10/27 08:59:30;;;;;;;;;;;21.70;99.90;;;;;;5053053;28;20007;-74
2022/10/27 09:02:14;;;;;;;;;;;22.10;99.90;;;;;;5063582;28;19967;-78
2022/10/27 09:04:55;;;;;;;;;;;22.20;99.90;;;;;;5047193;28;20331;-76
2022/10/27 09:07:28;;;;;;;;;;;21.80;99.90;;;;;;5063719;28;20350;-71
2022/10/27 09:09:55;;;;;;;;;;;21.20;99.90;;;;;;5049326;28;19928;-71
2022/10/27 09:12:41;;;;;;;;;;;20.40;99.90;;;;;;5062500;28;19924;-71
2022/10/27 09:15:13;;;;;;;;;;;19.90;99.90;;;;;;5062058;28;19947;-70
2022/10/27 09:17:58;;;;;;;;;;;19.60;99.90;;;;;;5062220;28;20257;-71
2022/10/27 09:20:43;;;;;;;;;;;19.40;99.90;;;;;;5048993;28;19924;-70
2022/10/27 09:23:13;;;;;;;;;;;19.30;99.90;;;;;;5045211;28;19920;-70
2022/10/27 09:25:40;;;;;;;;;;;19.30;99.90;;;;;;5067906;28;19920;-70
2022/10/27 09:28:07;;;;;;;;;;;19.10;99.90;;;;;;5065408;28;19921;-71
2022/10/27 09:30:34;;;;;;;;;;;19.10;99.90;;;;;;5049938;28;20307;-71
2022/10/27 09:33:00;;;;;;;;;;;19.10;99.90;;;;;;5052785;28;19921;-70
2022/10/27 09:35:27;;;;;;;;;;;19.00;99.90;;;;;;5065925;28;19920;-71
2022/10/27 09:37:55;;;;;;;;;;;18.70;99.90;;;;;;5047234;28;20015;-71
2022/10/27 09:40:21;;;;;;;;;;;18.60;99.90;;;;;;5064874;28;19920;-70
2022/10/27 09:42:48;;;;;;;;;;;18.50;99.90;;;;;;5048173;28;19920;-71
2022/10/27 09:45:16;;;;;;;;;;;18.30;99.90;;;;;;5065405;28;19928;-70
2022/10/27 09:47:44;;;;;;;;;;;18.20;99.90;;;;;;5046753;28;19921;-71
2022/10/27 09:50:21;;;;;;;;;;;18.20;99.90;;;;;;5066569;28;19978;-69
2022/10/27 09:52:47;;;;;;;;;;;18.20;99.90;;;;;;5063828;28;19928;-71
2022/10/27 09:55:13;;;;;;;;;;;18.10;99.90;;;;;;5061929;28;19971;-70
2022/10/27 09:57:40;;;;;;;;;;;18.10;99.90;;;;;;5044059;28;20081;-70
2022/10/27 10:00:15;;;;;;;;;;;18.00;99.90;;;;;;5045556;28;19942;-71
2022/10/27 10:02:52;;;;;;;;;;;18.00;99.90;;;;;;5044423;28;19920;-71
2022/10/27 10:05:22;;;;;;;;;;;18.10;99.90;;;;;;5043445;28;19998;-70
2022/10/27 10:07:47;;;;;;;;;;;18.30;99.90;;;;;;5062980;28;19917;-69
2022/10/27 10:10:18;;;;;;;;;;;18.50;99.90;;;;;;5064296;28;19931;-70
2022/10/27 10:12:43;;;;;;;;;;;18.80;99.90;;;;;;5045035;28;20032;-69
2022/10/27 10:15:09;;;;;;;;;;;19.00;99.90;;;;;;5062287;28;20388;-70
2022/10/27 10:17:35;;;;;;;;;;;19.30;99.90;;;;;;5062741;28;19920;-71
2022/10/27 10:20:01;;;;;;;;;;;19.40;99.90;;;;;;5046265;28;19917;-72
2022/10/27 10:22:28;;;;;;;;;;;19.30;99.90;;;;;;5044899;28;20297;-70
2022/10/27 10:24:55;;;;;;;;;;;19.30;99.90;;;;;;5063914;28;20420;-70
2022/10/27 10:27:27;;;;;;;;;;;19.10;99.90;;;;;;5060821;28;19924;-72
2022/10/27 10:29:54;;;;;;;;;;;19.00;99.90;;;;;;5041907;28;20364;-72
2022/10/27 10:32:23;;;;;;;;;;;19.10;99.90;;;;;;5062722;28;19942;-70
2022/10/27 10:34:52;;;;;;;;;;;19.20;99.90;;;;;;5046421;28;19928;-70
2022/10/27 10:37:30;;;;;;;;;;;19.30;99.90;;;;;;5059470;28;20008;-70
2022/10/27 10:40:15;;;;;;;;;;;19.40;99.90;;;;;;5060547;28;20000;-70
2022/10/27 10:42:45;;;;;;;;;;;20.00;99.90;;;;;;5060198;28;19953;-71
2022/10/27 10:45:21;;;;;;;;;;;20.60;99.90;;;;;;5064064;28;19920;-71
2022/10/27 10:47:49;;;;;;;;;;;21.20;99.90;;;;;;5045629;28;20015;-73
2022/10/27 10:50:14;;;;;;;;;;;21.40;99.90;;;;;;5041880;28;19968;-72
2022/10/27 10:52:46;;;;;;;;;;;21.20;99.90;;;;;;5062936;28;20013;-74
2022/10/27 10:55:22;;;;;;;;;;;21.10;99.90;;;;;;5042287;28;19987;-74
2022/10/27 10:57:49;;;;;;;;;;;21.60;99.90;;;;;;5048657;28;19920;-73
2022/10/27 11:00:18;;;;;;;;;;;22.00;99.90;;;;;;5060480;28;19921;-74
2022/10/27 11:02:55;;;;;;;;;;;22.40;99.90;;;;;;5045478;28;19924;-70
2022/10/27 11:05:22;;;;;;;;;;;22.60;99.90;;;;;;5059589;28;19995;-69
2022/10/27 11:07:51;;;;;;;;;;;22.40;99.90;;;;;;5063424;28;20359;-69
2022/10/27 11:10:20;;;;;;;;;;;22.40;99.90;;;;;;5059544;28;19935;-70
2022/10/27 11:13:00;;;;;;;;;;;21.90;99.90;;;;;;5041731;28;19923;-70
2022/10/27 11:15:31;;;;;;;;;;;21.50;99.90;;;;;;5043328;28;19921;-70
2022/10/27 11:18:09;;;;;;;;;;;20.80;99.90;;;;;;5043582;28;19924;-75
2022/10/27 11:20:35;;;;;;;;;;;20.90;99.90;;;;;;5059901;28;19920;-69
2022/10/27 11:23:05;;;;;;;;;;;21.10;99.90;;;;;;5061704;28;19932;-71
2022/10/27 11:25:33;;;;;;;;;;;21.30;99.90;;;;;;5060736;28;19936;-71
2022/10/27 11:28:04;;;;;;;;;;;21.80;99.90;;;;;;5043833;28;19979;-72
2022/10/27 11:30:30;;;;;;;;;;;22.10;99.90;;;;;;5061962;28;19960;-72
2022/10/27 11:32:56;;;;;;;;;;;22.40;99.90;;;;;;5062889;28;20324;-72
2022/10/27 11:35:32;;;;;;;;;;;22.50;99.90;;;;;;5065154;28;20012;-71
2022/10/27 11:37:57;;;;;;;;;;;22.40;99.90;;;;;;5064774;28;19920;-72
2022/10/27 11:40:38;;;;;;;;;;;22.10;99.90;;;;;;5062918;28;19928;-71
2022/10/27 11:43:18;;;;;;;;;;;22.00;99.90;;;;;;5046080;28;19932;-70
2022/10/27 11:45:48;;;;;;;;;;;21.90;99.90;;;;;;5062921;28;19925;-72
2022/10/27 11:48:26;;;;;;;;;;;21.80;99.90;;;;;;5052694;28;19924;-74
2022/10/27 11:51:05;;;;;;;;;;;21.90;99.90;;;;;;5052950;28;19939;-71
2022/10/27 11:53:31;;;;;;;;;;;22.40;99.90;;;;;;5066204;28;20344;-71
2022/10/27 11:55:59;;;;;;;;;;;23.30;99.90;;;;;;5069240;28;19999;-69
2022/10/27 11:58:41;;;;;;;;;;;23.90;99.90;;;;;;5046739;28;19970;-70
2022/10/27 12:01:18;;;;;;;;;;;24.10;99.90;;;;;;5062605;28;19932;-70
2022/10/27 12:04:03;;;;;;;;;;;23.80;99.90;;;;;;5064198;28;20308;-70
2022/10/27 12:06:37;;;;;;;;;;;23.20;99.90;;;;;;5049367;28;19925;-71
2022/10/27 12:09:02;;;;;;;;;;;23.10;99.90;;;;;;5065706;28;19920;-71
2022/10/27 12:11:28;;;;;;;;;;;23.00;99.90;;;;;;5063914;28;19928;-70
2022/10/27 12:13:56;;;;;;;;;;;22.70;99.90;;;;;;5064477;28;20339;-71
2022/10/27 12:16:24;;;;;;;;;;;22.30;99.90;;;;;;5064543;28;19924;-71
2022/10/27 12:18:53;;;;;;;;;;;21.80;99.90;;;;;;5047171;28;19921;-70
2022/10/27 12:21:41;;;;;;;;;;;21.30;99.90;;;;;;5064618;28;20003;-68
2022/10/27 12:24:30;;;;;;;;;;;21.00;99.90;;;;;;5044977;28;19924;-74
2022/10/27 12:26:59;;;;;;;;;;;20.60;99.90;;;;;;5056662;28;20383;-73
2022/10/27 12:29:28;;;;;;;;;;;20.30;99.90;;;;;;5044913;28;20318;-71
2022/10/27 12:31:59;;;;;;;;;;;20.20;99.90;;;;;;5067882;28;19930;-70
2022/10/27 12:34:32;;;;;;;;;;;20.00;99.90;;;;;;5062334;28;20392;-70
2022/10/27 12:37:14;;;;;;;;;;;20.10;99.90;;;;;;5065875;28;20021;-72
2022/10/27 12:39:47;;;;;;;;;;;19.90;99.90;;;;;;5063101;28;19920;-72
2022/10/27 12:42:35;;;;;;;;;;;19.90;99.90;;;;;;5046249;28;19932;-74
2022/10/27 12:45:27;;;;;;;;;;;19.90;99.90;;;;;;5050412;28;20279;-75
2022/10/27 12:48:11;;;;;;;;;;;19.80;99.90;;;;;;5063632;28;19928;-72
2022/10/27 12:50:47;;;;;;;;;;;19.60;99.90;;;;;;5048359;28;20187;-79
2022/10/27 12:53:25;;;;;;;;;;;19.40;99.90;;;;;;5047726;28;19920;-79
2022/10/27 12:55:50;;;;;;;;;;;19.30;99.90;;;;;;5051396;28;20381;-77
2022/10/27 12:58:18;;;;;;;;;;;19.40;99.90;;;;;;5064212;28;19920;-75
2022/10/27 13:00:48;;;;;;;;;;;19.30;99.90;;;;;;5063153;28;19957;-75
2022/10/27 13:03:23;;;;;;;;;;;19.30;99.90;;;;;;5044417;28;19924;-75
2022/10/27 13:06:07;;;;;;;;;;;19.30;99.90;;;;;;5062322;28;19943;-79
2022/10/27 13:08:32;;;;;;;;;;;19.10;99.90;;;;;;5044578;28;19920;-81
2022/10/27 13:11:09;;;;;;;;;;;19.20;99.90;;;;;;5061457;28;20550;-76
2022/10/27 13:13:53;;;;;;;;;;;19.20;99.90;;;;;;5049377;28;19925;-76
2022/10/27 13:16:28;;;;;;;;;;;19.20;99.90;;;;;;5042473;28;19975;-78
2022/10/27 13:19:00;;;;;;;;;;;19.30;99.90;;;;;;5062075;28;19920;-73
2022/10/27 13:21:44;;;;;;;;;;;19.10;99.90;;;;;;5046659;28;19928;-78
2022/10/27 13:24:20;;;;;;;;;;;19.10;99.90;;;;;;5062939;28;19924;-74
2022/10/27 13:26:53;;;;;;;;;;;19.00;99.90;;;;;;5060020;28;19921;-82
2022/10/27 13:29:21;;;;;;;;;;;18.90;99.90;;;;;;5069503;28;19920;-71
2022/10/27 13:32:21;;;;;;;;;;;18.60;99.90;;;;;;5045637;28;19927;-76
2022/10/27 13:34:59;;;;;;;;;;;18.60;99.90;;;;;;4998750;28;19921;-72
2022/10/27 13:37:40;;;;;;;;;;;18.40;99.90;;;;;;5067310;28;19927;-72
2022/10/27 13:40:32;;;;;;;;;;;18.40;99.90;;;;;;5065094;28;19920;-72
2022/10/27 13:43:19;;;;;;;;;;;18.10;99.90;;;;;;5043436;28;19959;-70
2022/10/27 13:45:49;;;;;;;;;;;17.90;99.90;;;;;;5045262;28;20008;-71
2022/10/27 13:48:14;;;;;;;;;;;17.80;99.90;;;;;;5063269;28;19970;-72
2022/10/27 13:50:43;;;;;;;;;;;17.60;99.90;;;;;;5050477;28;19920;-75
2022/10/27 13:53:14;;;;;;;;;;;17.60;99.90;;;;;;5064402;28;19920;-73
2022/10/27 13:55:40;;;;;;;;;;;17.60;99.90;;;;;;5045642;28;19924;-72
2022/10/27 13:58:05;;;;;;;;;;;17.60;99.90;;;;;;5065773;28;19920;-71
2022/10/27 14:00:51;;;;;;;;;;;17.50;99.90;;;;;;5043446;28;19920;-71
2022/10/27 14:03:26;;;;;;;;;;;17.60;99.90;;;;;;5020955;28;19925;-72
2022/10/27 14:05:53;;;;;;;;;;;17.60;99.90;;;;;;5064145;28;19925;-72
2022/10/27 14:08:24;;;;;;;;;;;17.50;99.90;;;;;;5061808;28;20359;-74
2022/10/27 14:10:50;;;;;;;;;;;17.50;99.90;;;;;;5043690;28;20291;-74
2022/10/27 14:13:21;;;;;;;;;;;17.50;99.90;;;;;;5046433;28;19956;-73
2022/10/27 14:15:54;;;;;;;;;;;17.60;99.90;;;;;;5046507;28;20265;-73
2022/10/27 14:18:28;;;;;;;;;;;17.60;99.90;;;;;;5065989;28;20352;-70
2022/10/27 14:20:55;;;;;;;;;;;17.50;99.90;;;;;;5061049;28;20375;-71
2022/10/27 14:23:21;;;;;;;;;;;17.50;99.90;;;;;;5061842;28;20275;-73
2022/10/27 14:25:46;;;;;;;;;;;17.60;99.90;;;;;;5076769;28;19924;-76
2022/10/27 14:28:19;;;;;;;;;;;17.60;99.90;;;;;;5045812;28;20493;-72